createdAt,value
2022-10-25T00:01:44.053Z,13.70
2022-10-25T00:04:11.872Z,13.70
2022-10-25T00:06:39.593Z,13.70
2022-10-25T00:09:07.268Z,13.70
2022-10-25T00:11:35.021Z,13.70
2022-10-25T00:14:03.873Z,13.70
2022-10-25T00:16:35.324Z,13.70
2022-10-25T00:19:04.369Z,13.60
2022-10-25T00:21:32.711Z,13.40
2022-10-25T00:24:00.470Z,13.30
2022-10-25T00:26:28.113Z,13.30
2022-10-25T00:28:56.042Z,13.30
2022-10-25T00:31:24.385Z,13.20
2022-10-25T00:33:52.175Z,13.10
2022-10-25T00:36:22.402Z,12.90
2022-10-25T00:38:50.706Z,12.70
2022-10-25T00:41:19.559Z,12.70
2022-10-25T00:43:48.620Z,12.60
2022-10-25T00:46:21.643Z,12.60
2022-10-25T00:48:52.767Z,12.60
2022-10-25T00:51:22.699Z,12.60
2022-10-25T00:53:50.491Z,12.60
2022-10-25T00:56:20.138Z,12.60
2022-10-25T00:58:50.311Z,12.70
2022-10-25T01:01:18.813Z,12.60
2022-10-25T01:03:48.532Z,12.70
2022-10-25T01:06:18.716Z,12.70
2022-10-25T01:08:49.100Z,12.70
2022-10-25T01:13:49.983Z,12.90
2022-10-25T01:16:22.714Z,12.90
2022-10-25T01:18:54.335Z,12.90
2022-10-25T01:21:42.725Z,13.00
2022-10-25T01:24:28.922Z,13.00
2022-10-25T01:27:12.931Z,13.00
2022-10-25T01:29:50.882Z,13.00
2022-10-25T01:32:23.261Z,12.90
2022-10-25T01:34:53.926Z,13.00
2022-10-25T01:37:25.242Z,12.90
2022-10-25T01:39:55.983Z,12.90
2022-10-25T01:42:26.810Z,12.90
2022-10-25T01:44:59.723Z,12.90
2022-10-25T01:47:30.686Z,13.00
2022-10-25T01:49:59.144Z,12.90
2022-10-25T01:52:27.307Z,12.90
2022-10-25T01:54:55.074Z,12.80
2022-10-25T01:57:35.603Z,12.80
2022-10-25T02:00:07.073Z,12.80
2022-10-25T02:02:38.875Z,12.90
2022-10-25T02:05:11.398Z,12.90
2022-10-25T02:07:39.936Z,12.90
2022-10-25T02:10:08.996Z,12.90
2022-10-25T02:12:42.550Z,12.90
2022-10-25T02:15:11.232Z,12.90
2022-10-25T02:17:43.027Z,12.90
2022-10-25T02:20:11.651Z,12.90
2022-10-25T02:22:40.038Z,12.80
2022-10-25T02:25:09.418Z,12.80
2022-10-25T02:27:38.537Z,12.90
2022-10-25T02:30:07.371Z,12.90
2022-10-25T02:32:35.163Z,12.90
2022-10-25T02:35:04.304Z,12.80
2022-10-25T02:37:32.932Z,12.80
2022-10-25T02:40:00.808Z,12.80
2022-10-25T02:42:28.656Z,12.80
2022-10-25T02:44:56.360Z,12.70
2022-10-25T02:47:24.081Z,12.70
2022-10-25T02:49:51.753Z,12.60
2022-10-25T02:52:20.778Z,12.60
2022-10-25T02:54:48.450Z,12.60
2022-10-25T02:57:16.109Z,12.50
2022-10-25T02:59:43.777Z,12.40
2022-10-25T03:02:11.471Z,12.50
2022-10-25T03:04:39.150Z,12.50
2022-10-25T03:07:06.829Z,12.50
2022-10-25T03:09:35.841Z,12.50
2022-10-25T03:12:03.499Z,12.50
2022-10-25T03:14:31.162Z,12.50
2022-10-25T03:16:58.827Z,12.50
2022-10-25T03:19:26.505Z,12.50
2022-10-25T03:21:54.199Z,12.50
2022-10-25T03:24:21.891Z,12.50
2022-10-25T03:26:50.878Z,12.50
2022-10-25T03:29:18.762Z,12.40
2022-10-25T03:31:46.443Z,12.50
2022-10-25T03:34:14.291Z,12.50
2022-10-25T03:36:42.047Z,12.40
2022-10-25T03:39:10.813Z,12.50
2022-10-25T03:41:38.496Z,12.50
2022-10-25T03:44:07.528Z,12.50
2022-10-25T03:46:35.327Z,12.40
2022-10-25T03:49:02.997Z,12.40
2022-10-25T03:51:30.683Z,12.40
2022-10-25T03:53:58.370Z,12.40
2022-10-25T03:56:26.019Z,12.40
2022-10-25T03:58:54.179Z,12.50
2022-10-25T04:01:23.345Z,12.40
2022-10-25T04:03:51.099Z,12.30
2022-10-25T04:06:18.780Z,12.30
2022-10-25T04:08:46.467Z,12.20
2022-10-25T04:11:14.126Z,12.20
2022-10-25T04:13:41.822Z,12.20
2022-10-25T04:16:10.031Z,12.20
2022-10-25T04:18:39.064Z,12.20
2022-10-25T04:21:06.863Z,12.20
2022-10-25T04:23:34.539Z,12.20
2022-10-25T04:26:02.227Z,12.10
2022-10-25T04:28:29.911Z,12.10
2022-10-25T04:30:57.597Z,12.10
2022-10-25T04:33:25.263Z,12.20
2022-10-25T04:35:57.348Z,12.10
2022-10-25T04:38:25.121Z,12.10
2022-10-25T04:40:56.158Z,12.10
2022-10-25T04:43:23.935Z,12.20
2022-10-25T04:45:51.649Z,12.10
2022-10-25T04:48:19.635Z,12.20
2022-10-25T04:50:47.781Z,12.20
2022-10-25T04:53:16.977Z,12.20
2022-10-25T04:55:44.688Z,12.20
2022-10-25T04:58:12.374Z,12.20
2022-10-25T05:00:40.042Z,12.20
2022-10-25T05:03:10.896Z,12.20
2022-10-25T05:05:40.927Z,12.20
2022-10-25T05:08:08.583Z,12.20
2022-10-25T05:10:37.586Z,12.30
2022-10-25T05:13:05.286Z,12.20
2022-10-25T05:15:32.956Z,12.10
2022-10-25T05:18:00.979Z,11.90
2022-10-25T05:20:29.346Z,11.90
2022-10-25T05:22:57.037Z,11.80
2022-10-25T05:25:24.698Z,11.60
2022-10-25T05:27:53.738Z,11.40
2022-10-25T05:30:21.395Z,11.40
2022-10-25T05:32:50.789Z,11.30
2022-10-25T05:35:18.488Z,11.30
2022-10-25T05:37:46.146Z,11.30
2022-10-25T05:40:13.911Z,11.30
2022-10-25T05:42:41.587Z,11.50
2022-10-25T05:45:11.134Z,11.60
2022-10-25T05:47:38.813Z,11.60
2022-10-25T05:50:06.865Z,11.70
2022-10-25T05:52:34.553Z,11.80
2022-10-25T05:55:02.257Z,11.80
2022-10-25T05:57:30.863Z,11.80
2022-10-25T05:59:58.522Z,11.90
2022-10-25T06:02:27.806Z,11.90
2022-10-25T06:04:55.539Z,11.90
2022-10-25T06:07:23.220Z,12.00
2022-10-25T06:09:50.971Z,12.00
2022-10-25T06:12:18.687Z,12.00
2022-10-25T06:14:46.352Z,12.10
2022-10-25T06:17:14.049Z,12.10
2022-10-25T06:19:43.055Z,12.20
2022-10-25T06:22:10.721Z,12.20
2022-10-25T06:24:38.411Z,12.30
2022-10-25T06:27:06.146Z,12.30
2022-10-25T06:29:33.851Z,12.30
2022-10-25T06:32:01.518Z,12.20
2022-10-25T06:34:29.187Z,12.10
2022-10-25T06:36:58.198Z,12.20
2022-10-25T06:39:25.869Z,12.20
2022-10-25T06:41:53.996Z,12.40
2022-10-25T06:44:21.668Z,12.30
2022-10-25T06:49:36.995Z,12.00
2022-10-25T06:52:06.125Z,11.90
2022-10-25T06:54:33.778Z,11.80
2022-10-25T06:57:01.471Z,11.80
2022-10-25T06:59:29.110Z,12.00
2022-10-25T07:01:57.307Z,12.00
2022-10-25T07:04:25.282Z,12.20
2022-10-25T07:06:55.249Z,12.30
2022-10-25T07:09:25.763Z,12.40
2022-10-25T07:11:53.437Z,12.40
2022-10-25T07:14:21.145Z,12.40
2022-10-25T07:16:48.829Z,12.30
2022-10-25T07:19:16.571Z,12.40
2022-10-25T07:21:45.071Z,12.50
2022-10-25T07:24:12.987Z,12.50
2022-10-25T07:26:42.019Z,12.60
2022-10-25T07:29:10.119Z,12.80
2022-10-25T07:31:38.941Z,12.90
2022-10-25T07:34:06.940Z,13.00
2022-10-25T07:36:35.059Z,13.00
2022-10-25T07:39:02.786Z,13.10
2022-10-25T07:41:30.551Z,13.30
2022-10-25T07:43:59.643Z,13.50
2022-10-25T07:46:27.324Z,13.60
2022-10-25T07:48:54.998Z,13.60
2022-10-25T07:51:25.209Z,13.70
2022-10-25T07:53:53.677Z,13.80
2022-10-25T07:56:23.620Z,13.80
2022-10-25T07:58:51.705Z,13.90
2022-10-25T08:01:21.897Z,13.70
2022-10-25T08:03:49.666Z,13.60
2022-10-25T08:06:17.331Z,13.50
2022-10-25T08:08:45.209Z,13.50
2022-10-25T08:11:12.910Z,13.50
2022-10-25T08:13:40.951Z,13.70
2022-10-25T08:16:08.978Z,13.70
2022-10-25T08:18:37.985Z,13.80
2022-10-25T08:21:05.766Z,13.80
2022-10-25T08:23:33.858Z,13.90
2022-10-25T08:26:01.571Z,14.00
2022-10-25T08:28:30.951Z,14.20
2022-10-25T08:30:58.934Z,14.20
2022-10-25T08:33:26.717Z,14.30
2022-10-25T08:35:55.699Z,14.40
2022-10-25T08:38:23.412Z,14.50
2022-10-25T08:40:53.980Z,14.70
2022-10-25T08:43:28.010Z,14.70
2022-10-25T08:45:57.350Z,14.80
2022-10-25T08:48:27.535Z,14.70
2022-10-25T08:50:58.471Z,14.80
2022-10-25T08:53:28.781Z,14.90
2022-10-25T08:56:15.760Z,14.80
2022-10-25T08:58:46.191Z,14.70
2022-10-25T09:01:15.748Z,14.60
2022-10-25T09:03:43.557Z,14.70
2022-10-25T09:06:18.832Z,14.80
2022-10-25T09:08:57.856Z,15.00
2022-10-25T09:11:36.655Z,15.30
2022-10-25T09:14:06.936Z,15.50
2022-10-25T09:16:38.141Z,15.90
2022-10-25T09:19:09.371Z,16.20
2022-10-25T09:21:42.999Z,16.40
2022-10-25T09:24:14.036Z,16.50
2022-10-25T09:26:43.113Z,16.60
2022-10-25T09:29:22.184Z,16.70
2022-10-25T09:31:52.007Z,16.60
2022-10-25T09:34:21.119Z,16.60
2022-10-25T09:36:53.109Z,16.60
2022-10-25T09:39:25.634Z,16.60
2022-10-25T09:41:54.558Z,16.50
2022-10-25T09:44:30.802Z,16.40
2022-10-25T09:46:59.477Z,16.40
2022-10-25T09:49:30.344Z,16.30
2022-10-25T09:52:03.280Z,16.20
2022-10-25T09:54:33.097Z,16.10
2022-10-25T09:57:00.771Z,16.00
2022-10-25T09:59:28.924Z,15.90
2022-10-25T10:01:56.771Z,15.90
2022-10-25T10:04:26.742Z,16.00
2022-10-25T10:06:57.602Z,16.20
2022-10-25T10:09:29.266Z,16.30
2022-10-25T10:11:57.869Z,16.40
2022-10-25T10:14:28.458Z,16.30
2022-10-25T10:16:57.361Z,16.40
2022-10-25T10:19:25.696Z,16.40
2022-10-25T10:21:54.580Z,16.50
2022-10-25T10:24:23.366Z,16.60
2022-10-25T10:26:55.411Z,16.70
2022-10-25T10:29:23.563Z,16.80
2022-10-25T10:31:51.974Z,16.80
2022-10-25T10:34:27.021Z,16.90
2022-10-25T10:37:04.906Z,17.00
2022-10-25T10:39:32.621Z,17.10
2022-10-25T10:42:03.905Z,17.10
2022-10-25T10:44:34.336Z,17.10
2022-10-25T10:47:02.906Z,17.00
2022-10-25T10:49:36.821Z,16.90
2022-10-25T10:52:04.620Z,17.10
2022-10-25T10:54:33.878Z,17.10
2022-10-25T10:57:04.010Z,17.00
2022-10-25T10:59:34.247Z,17.10
2022-10-25T11:02:12.081Z,17.10
2022-10-25T11:04:47.610Z,17.10
2022-10-25T11:07:18.309Z,17.00
2022-10-25T11:09:45.958Z,17.20
2022-10-25T11:12:15.319Z,17.50
2022-10-25T11:14:43.588Z,17.70
2022-10-25T11:17:14.703Z,18.10
2022-10-25T11:20:00.711Z,18.40
2022-10-25T11:22:37.869Z,18.60
2022-10-25T11:25:14.099Z,18.70
2022-10-25T11:27:49.955Z,18.70
2022-10-25T11:30:19.398Z,18.50
2022-10-25T11:33:09.235Z,18.30
2022-10-25T11:35:45.594Z,18.20
2022-10-25T11:38:17.921Z,17.90
2022-10-25T11:40:47.176Z,17.90
2022-10-25T11:43:25.150Z,17.80
2022-10-25T11:45:57.929Z,17.70
2022-10-25T11:48:33.476Z,17.90
2022-10-25T11:51:05.204Z,17.90
2022-10-25T11:53:40.392Z,18.10
2022-10-25T11:56:10.485Z,18.20
2022-10-25T11:58:46.191Z,18.20
2022-10-25T12:01:35.910Z,18.20
2022-10-25T12:04:13.134Z,18.20
2022-10-25T12:06:43.867Z,18.10
2022-10-25T12:09:16.186Z,18.00
2022-10-25T12:11:46.238Z,18.10
2022-10-25T12:14:17.508Z,17.90
2022-10-25T12:16:45.576Z,17.90
2022-10-25T12:19:15.447Z,18.00
2022-10-25T12:21:45.970Z,18.00
2022-10-25T12:24:17.823Z,18.10
2022-10-25T12:26:46.613Z,18.30
2022-10-25T12:29:18.768Z,18.50
2022-10-25T12:31:48.750Z,18.40
2022-10-25T12:34:18.488Z,18.80
2022-10-25T12:36:47.681Z,19.50
2022-10-25T12:39:18.007Z,19.80
2022-10-25T12:41:48.005Z,20.00
2022-10-25T12:44:24.716Z,20.50
2022-10-25T12:47:02.222Z,20.80
2022-10-25T12:49:45.770Z,21.00
2022-10-25T12:52:21.853Z,21.60
2022-10-25T12:54:59.287Z,22.00
2022-10-25T12:57:29.964Z,22.40
2022-10-25T13:00:05.965Z,22.30
2022-10-25T13:02:51.442Z,21.90
2022-10-25T13:05:31.604Z,21.60
2022-10-25T13:08:01.492Z,21.10
2022-10-25T13:10:32.621Z,20.60
2022-10-25T13:13:01.742Z,20.00
2022-10-25T13:15:36.732Z,20.00
2022-10-25T13:18:05.259Z,20.30
2022-10-25T13:20:45.962Z,20.30
2022-10-25T13:23:32.582Z,19.90
2022-10-25T13:26:05.327Z,19.70
2022-10-25T13:28:36.173Z,19.60
2022-10-25T13:31:28.057Z,19.50
2022-10-25T13:34:10.694Z,19.40
2022-10-25T13:36:48.608Z,19.30
2022-10-25T13:39:17.252Z,19.20
2022-10-25T13:41:45.472Z,19.00
2022-10-25T13:44:20.409Z,18.90
2022-10-25T13:46:49.103Z,18.90
2022-10-25T13:49:26.625Z,18.90
2022-10-25T13:51:56.607Z,18.90
2022-10-25T13:54:24.697Z,18.70
2022-10-25T13:56:53.605Z,18.60
2022-10-25T13:59:35.654Z,18.50
2022-10-25T14:02:09.606Z,18.50
2022-10-25T14:04:40.615Z,18.60
2022-10-25T14:07:26.840Z,18.50
2022-10-25T14:09:56.707Z,18.40
2022-10-25T14:12:25.890Z,18.40
2022-10-25T14:14:57.836Z,18.30
2022-10-25T14:17:30.378Z,18.20
2022-10-25T14:19:58.821Z,18.10
2022-10-25T14:22:31.826Z,18.00
2022-10-25T14:25:04.318Z,18.00
2022-10-25T14:27:32.758Z,18.00
2022-10-25T14:30:13.798Z,17.90
2022-10-25T14:32:49.235Z,17.90
2022-10-25T14:35:17.166Z,18.00
2022-10-25T14:37:44.824Z,17.90
2022-10-25T14:40:24.423Z,17.90
2022-10-25T14:42:54.783Z,17.90
2022-10-25T14:45:24.141Z,17.80
2022-10-25T14:47:51.917Z,17.70
2022-10-25T14:50:22.037Z,17.70
2022-10-25T14:52:51.332Z,17.60
2022-10-25T14:55:22.449Z,17.70
2022-10-25T14:57:51.561Z,17.70
2022-10-25T15:00:21.081Z,17.70
2022-10-25T15:02:50.111Z,17.70
2022-10-25T15:05:19.162Z,17.60
2022-10-25T15:07:47.825Z,17.50
2022-10-25T15:10:34.001Z,17.40
2022-10-25T15:13:05.556Z,17.40
2022-10-25T15:15:34.813Z,17.40
2022-10-25T15:18:02.490Z,17.30
2022-10-25T15:20:30.966Z,17.20
2022-10-25T15:23:02.661Z,17.20
2022-10-25T15:25:31.278Z,17.10
2022-10-25T15:28:09.801Z,17.10
2022-10-25T15:30:39.921Z,17.00
2022-10-25T15:33:11.073Z,17.10
2022-10-25T15:35:43.913Z,17.00
2022-10-25T15:38:12.217Z,17.10
2022-10-25T15:40:39.907Z,17.00
2022-10-25T15:43:07.629Z,17.00
2022-10-25T15:45:37.692Z,17.00
2022-10-25T15:48:07.620Z,17.00
2022-10-25T15:50:35.319Z,16.90
2022-10-25T15:53:03.160Z,16.90
2022-10-25T15:55:32.997Z,16.90
2022-10-25T15:58:05.845Z,16.90
2022-10-25T16:00:35.930Z,16.90
2022-10-25T16:03:04.173Z,16.80
2022-10-25T16:05:34.779Z,16.80
2022-10-25T16:08:02.772Z,16.80
2022-10-25T16:10:31.809Z,16.80
2022-10-25T16:13:01.122Z,16.80
2022-10-25T16:15:28.968Z,16.70
2022-10-25T16:17:56.646Z,16.60
2022-10-25T16:20:25.495Z,16.50
2022-10-25T16:22:55.475Z,16.50
2022-10-25T16:25:23.704Z,16.40
2022-10-25T16:27:51.406Z,16.30
2022-10-25T16:30:20.280Z,16.20
2022-10-25T16:32:48.380Z,16.10
2022-10-25T16:35:18.712Z,16.10
2022-10-25T16:37:46.751Z,16.00
2022-10-25T16:40:16.946Z,16.00
2022-10-25T16:42:44.709Z,15.80
2022-10-25T16:45:15.269Z,15.70
2022-10-25T16:47:43.023Z,15.60
2022-10-25T16:50:10.725Z,15.60
2022-10-25T16:52:38.493Z,15.60
2022-10-25T16:55:06.759Z,15.50
2022-10-25T16:57:35.836Z,15.40
2022-10-25T17:00:04.065Z,15.20
2022-10-25T17:02:31.754Z,15.10
2022-10-25T17:04:59.841Z,15.00
2022-10-25T17:07:27.676Z,14.90
2022-10-25T17:09:56.336Z,14.70
2022-10-25T17:12:24.089Z,14.70
2022-10-25T17:14:53.117Z,14.70
2022-10-25T17:17:20.997Z,14.70
2022-10-25T17:19:48.668Z,14.70
2022-10-25T17:22:16.386Z,14.60
2022-10-25T17:24:44.039Z,14.60
2022-10-25T17:27:11.706Z,14.60
2022-10-25T17:29:39.406Z,14.60
2022-10-25T17:32:08.427Z,14.50
2022-10-25T17:34:36.602Z,14.50
2022-10-25T17:37:04.315Z,14.50
2022-10-25T17:39:31.961Z,14.40
2022-10-25T17:41:59.674Z,14.40
2022-10-25T17:44:27.340Z,14.40
2022-10-25T17:46:56.399Z,14.40
2022-10-25T17:49:27.461Z,14.40
2022-10-25T17:51:55.138Z,14.30
2022-10-25T17:54:22.807Z,14.20
2022-10-25T17:56:50.627Z,14.20
2022-10-25T17:59:18.293Z,14.20
2022-10-25T18:01:46.049Z,14.20
2022-10-25T18:04:13.862Z,14.20
2022-10-25T18:06:42.854Z,14.10
2022-10-25T18:09:10.531Z,14.10
2022-10-25T18:11:38.234Z,14.10
2022-10-25T18:14:06.002Z,14.00
2022-10-25T18:16:33.759Z,14.00
2022-10-25T18:19:02.444Z,14.00
2022-10-25T18:21:30.504Z,14.00
2022-10-25T18:24:00.292Z,14.00
2022-10-25T18:26:28.034Z,13.90
2022-10-25T18:28:55.761Z,13.90
2022-10-25T18:31:23.589Z,13.80
2022-10-25T18:33:51.363Z,13.70
2022-10-25T18:36:20.119Z,13.60
2022-10-25T18:38:47.899Z,13.50
2022-10-25T18:41:19.126Z,13.50
2022-10-25T18:43:46.871Z,13.50
2022-10-25T18:46:14.583Z,13.50
2022-10-25T18:48:42.275Z,13.50
2022-10-25T18:51:11.162Z,13.60
2022-10-25T18:53:39.461Z,13.50
2022-10-25T18:56:09.136Z,13.50
2022-10-25T18:58:38.273Z,13.50
2022-10-25T19:01:06.563Z,13.50
2022-10-25T19:03:34.420Z,13.50
2022-10-25T19:06:02.393Z,13.50
2022-10-25T19:08:30.083Z,13.50
2022-10-25T19:10:57.771Z,13.40
2022-10-25T19:13:25.442Z,13.40
2022-10-25T19:15:57.359Z,13.40
2022-10-25T19:18:25.190Z,13.40
2022-10-25T19:20:52.855Z,13.40
2022-10-25T19:23:20.524Z,13.40
2022-10-25T19:25:48.196Z,13.30
2022-10-25T19:28:15.885Z,13.40
2022-10-25T19:30:43.595Z,13.40
2022-10-25T19:33:12.648Z,13.40
2022-10-25T19:35:40.324Z,13.40
2022-10-25T19:38:08.150Z,13.50
2022-10-25T19:40:35.843Z,13.50
2022-10-25T19:43:03.503Z,13.50
2022-10-25T19:45:31.292Z,13.60
2022-10-25T19:47:59.011Z,13.60
2022-10-25T19:50:28.793Z,13.60
2022-10-25T19:52:56.486Z,13.60
2022-10-25T19:55:24.184Z,13.60
2022-10-25T19:57:51.859Z,13.60
2022-10-25T20:00:19.790Z,13.60
2022-10-25T20:02:47.452Z,13.50
2022-10-25T20:05:15.129Z,13.40
2022-10-25T20:07:44.239Z,13.50
2022-10-25T20:10:12.958Z,13.60
2022-10-25T20:12:40.689Z,13.60
2022-10-25T20:15:08.759Z,13.60
2022-10-25T20:17:36.489Z,13.70
2022-10-25T20:20:04.313Z,13.70
2022-10-25T20:22:33.967Z,13.70
2022-10-25T20:25:03.021Z,13.60
2022-10-25T20:27:32.099Z,13.50
2022-10-25T20:29:59.790Z,13.50
2022-10-25T20:32:27.456Z,13.40
2022-10-25T20:34:55.234Z,13.40
2022-10-25T20:37:25.357Z,13.40
2022-10-25T20:39:53.200Z,13.30
2022-10-25T20:42:23.359Z,13.20
2022-10-25T20:44:51.087Z,13.20
2022-10-25T20:47:18.816Z,13.10
2022-10-25T20:49:46.624Z,13.10
2022-10-25T20:52:14.280Z,13.00
2022-10-25T20:54:41.953Z,13.00
2022-10-25T20:57:09.999Z,13.00
2022-10-25T20:59:39.001Z,13.00
2022-10-25T21:02:06.852Z,13.00
2022-10-25T21:04:42.695Z,13.00
2022-10-25T21:07:20.619Z,13.00
2022-10-25T21:09:49.557Z,13.00
2022-10-25T21:12:17.437Z,12.90
2022-10-25T21:14:46.473Z,12.90
2022-10-25T21:17:14.303Z,13.00
2022-10-25T21:19:41.981Z,13.00
2022-10-25T21:22:09.710Z,13.00
2022-10-25T21:24:37.400Z,12.90
2022-10-25T21:27:05.082Z,12.90
2022-10-25T21:29:32.776Z,13.00
2022-10-25T21:32:01.795Z,13.00
2022-10-25T21:34:29.464Z,12.90
2022-10-25T21:36:57.143Z,12.90
2022-10-25T21:39:24.857Z,12.90
2022-10-25T21:41:52.819Z,12.90
2022-10-25T21:44:22.171Z,13.00
2022-10-25T21:46:49.892Z,13.00
2022-10-25T21:49:18.899Z,13.00
2022-10-25T21:51:46.578Z,13.00
2022-10-25T21:54:14.383Z,13.00
2022-10-25T21:56:42.061Z,13.00
2022-10-25T21:59:09.719Z,13.10
2022-10-25T22:01:37.490Z,13.10
2022-10-25T22:04:05.484Z,13.00
2022-10-25T22:06:34.527Z,13.10
2022-10-25T22:09:02.458Z,13.10
2022-10-25T22:11:31.931Z,13.10
2022-10-25T22:14:09.079Z,13.00
2022-10-25T22:16:36.760Z,13.00
2022-10-25T22:19:05.420Z,13.00
2022-10-25T22:21:36.004Z,13.00
2022-10-25T22:24:04.009Z,13.00
2022-10-25T22:26:31.669Z,13.00
2022-10-25T22:29:00.049Z,12.90
2022-10-25T22:31:29.082Z,12.80
2022-10-25T22:33:57.563Z,12.80
2022-10-25T22:36:26.346Z,12.80
2022-10-25T22:38:55.391Z,12.80
2022-10-25T22:41:23.532Z,12.70
2022-10-25T22:43:51.482Z,12.60
2022-10-25T22:46:22.063Z,12.50
2022-10-25T22:48:49.765Z,12.40
2022-10-25T22:51:17.627Z,12.20
2022-10-25T22:53:45.638Z,12.10
2022-10-25T22:56:15.379Z,12.10
2022-10-25T22:58:44.139Z,12.10
2022-10-25T23:01:13.862Z,12.10
2022-10-25T23:03:42.519Z,12.00
2022-10-25T23:06:11.412Z,12.00
2022-10-25T23:08:39.141Z,12.00
2022-10-25T23:11:07.739Z,12.00
2022-10-25T23:13:36.978Z,12.00
2022-10-25T23:16:04.982Z,12.00
2022-10-25T23:18:33.010Z,12.00
2022-10-25T23:21:01.581Z,12.00
2022-10-25T23:23:30.132Z,12.00
2022-10-25T23:26:00.332Z,12.10
2022-10-25T23:28:28.867Z,12.10
2022-10-25T23:31:03.334Z,12.20
2022-10-25T23:33:31.027Z,12.20
2022-10-25T23:36:02.119Z,12.20
2022-10-25T23:38:29.821Z,12.30
2022-10-25T23:40:58.098Z,12.30
2022-10-25T23:43:25.835Z,12.30
2022-10-25T23:45:53.586Z,12.30
2022-10-25T23:48:22.610Z,12.30
2022-10-25T23:50:55.145Z,12.30
2022-10-25T23:53:22.832Z,12.30
2022-10-25T23:55:50.527Z,12.20
2022-10-25T23:58:18.223Z,12.30
